sensor_id;sensor_type;location;lat;lon;timestamp;P1;durP1;ratioP1;P2;durP2;ratioP2
2544;SDS011;36212;48.838;9.142;2022-12-07T00:01:58;9.70;;;8.75;;
2544;SDS011;36212;48.838;9.142;2022-12-07T00:04:30;10.95;;;9.80;;
2544;SDS011;36212;48.838;9.142;2022-12-07T00:07:02;10.70;;;9.70;;
2544;SDS011;36212;48.838;9.142;2022-12-07T00:09:35;11.25;;;9.82;;
2544;SDS011;36212;48.838;9.142;2022-12-07T00:12:09;10.43;;;9.45;;
2544;SDS011;36212;48.838;9.142;2022-12-07T00:14:41;12.15;;;10.93;;
2544;SDS011;36212;48.838;9.142;2022-12-07T00:17:13;11.10;;;10.00;;
2544;SDS011;36212;48.838;9.142;2022-12-07T00:19:45;11.02;;;9.93;;
2544;SDS011;36212;48.838;9.142;2022-12-07T00:22:17;11.32;;;10.15;;
2544;SDS011;36212;48.838;9.142;2022-12-07T00:24:49;10.90;;;9.80;;
2544;SDS011;36212;48.838;9.142;2022-12-07T00:27:21;11.35;;;10.00;;
2544;SDS011;36212;48.838;9.142;2022-12-07T00:29:54;13.13;;;10.80;;
2544;SDS011;36212;48.838;9.142;2022-12-07T00:32:26;10.73;;;9.65;;
2544;SDS011;36212;48.838;9.142;2022-12-07T00:34:58;11.02;;;9.93;;
2544;SDS011;36212;48.838;9.142;2022-12-07T00:37:30;11.90;;;10.70;;
2544;SDS011;36212;48.838;9.142;2022-12-07T00:40:02;12.13;;;10.82;;
2544;SDS011;36212;48.838;9.142;2022-12-07T00:42:35;12.52;;;10.55;;
2544;SDS011;36212;48.838;9.142;2022-12-07T00:45:08;11.75;;;10.55;;
2544;SDS011;36212;48.838;9.142;2022-12-07T00:47:40;12.93;;;10.77;;
2544;SDS011;36212;48.838;9.142;2022-12-07T00:50:12;13.18;;;10.20;;
2544;SDS011;36212;48.838;9.142;2022-12-07T00:52:45;11.57;;;10.30;;
2544;SDS011;36212;48.838;9.142;2022-12-07T00:55:17;12.00;;;10.45;;
2544;SDS011;36212;48.838;9.142;2022-12-07T00:57:49;13.32;;;10.85;;
2544;SDS011;36212;48.838;9.142;2022-12-07T01:00:21;11.73;;;10.50;;
2544;SDS011;36212;48.838;9.142;2022-12-07T01:02:53;15.05;;;11.35;;
2544;SDS011;36212;48.838;9.142;2022-12-07T01:05:26;11.73;;;10.52;;
2544;SDS011;36212;48.838;9.142;2022-12-07T01:08:00;12.15;;;10.93;;
2544;SDS011;36212;48.838;9.142;2022-12-07T01:10:32;15.30;;;12.13;;
2544;SDS011;36212;48.838;9.142;2022-12-07T01:13:04;11.63;;;10.48;;
2544;SDS011;36212;48.838;9.142;2022-12-07T01:15:40;12.50;;;10.20;;
2544;SDS011;36212;48.838;9.142;2022-12-07T01:18:14;12.95;;;11.43;;
2544;SDS011;36212;48.838;9.142;2022-12-07T01:20:56;12.02;;;10.82;;
2544;SDS011;36212;48.838;9.142;2022-12-07T01:23:35;11.70;;;10.32;;
2544;SDS011;36212;48.838;9.142;2022-12-07T01:26:12;14.65;;;10.93;;
2544;SDS011;36212;48.838;9.142;2022-12-07T01:28:48;10.70;;;9.20;;
2544;SDS011;36212;48.838;9.142;2022-12-07T01:31:22;12.82;;;10.63;;
2544;SDS011;36212;48.838;9.142;2022-12-07T01:33:57;10.27;;;9.27;;
2544;SDS011;36212;48.838;9.142;2022-12-07T01:36:32;12.20;;;11.00;;
2544;SDS011;36212;48.838;9.142;2022-12-07T01:39:06;13.13;;;11.15;;
2544;SDS011;36212;48.838;9.142;2022-12-07T01:41:40;13.60;;;11.80;;
2544;SDS011;36212;48.838;9.142;2022-12-07T01:46:58;11.40;;;10.13;;
2544;SDS011;36212;48.838;9.142;2022-12-07T01:49:36;11.68;;;10.13;;
2544;SDS011;36212;48.838;9.142;2022-12-07T01:52:21;13.38;;;10.90;;
2544;SDS011;36212;48.838;9.142;2022-12-07T01:55:02;14.07;;;10.88;;
2544;SDS011;36212;48.838;9.142;2022-12-07T01:57:40;11.88;;;10.18;;
2544;SDS011;36212;48.838;9.142;2022-12-07T02:00:18;12.88;;;11.40;;
2544;SDS011;36212;48.838;9.142;2022-12-07T02:05:43;10.98;;;9.25;;
2544;SDS011;36212;48.838;9.142;2022-12-07T02:08:18;11.63;;;10.38;;
2544;SDS011;36212;48.838;9.142;2022-12-07T02:10:51;10.90;;;9.80;;
2544;SDS011;36212;48.838;9.142;2022-12-07T02:13:25;11.60;;;10.40;;
2544;SDS011;36212;48.838;9.142;2022-12-07T02:32:05;10.60;;;9.60;;
2544;SDS011;36212;48.838;9.142;2022-12-07T02:40:56;9.95;;;9.00;;
2544;SDS011;36212;48.838;9.142;2022-12-07T02:43:52;10.77;;;9.68;;
2544;SDS011;36212;48.838;9.142;2022-12-07T02:46:42;11.15;;;10.05;;
2544;SDS011;36212;48.838;9.142;2022-12-07T02:49:23;11.93;;;9.93;;
2544;SDS011;36212;48.838;9.142;2022-12-07T02:51:59;9.77;;;8.25;;
2544;SDS011;36212;48.838;9.142;2022-12-07T02:54:32;10.25;;;9.18;;
2544;SDS011;36212;48.838;9.142;2022-12-07T03:00:31;11.05;;;8.77;;
2544;SDS011;36212;48.838;9.142;2022-12-07T03:03:25;9.60;;;8.35;;
2544;SDS011;36212;48.838;9.142;2022-12-07T03:08:56;9.90;;;8.55;;
2544;SDS011;36212;48.838;9.142;2022-12-07T03:12:10;10.90;;;9.55;;
2544;SDS011;36212;48.838;9.142;2022-12-07T03:15:05;11.18;;;9.88;;
2544;SDS011;36212;48.838;9.142;2022-12-07T03:17:48;9.52;;;8.40;;
2544;SDS011;36212;48.838;9.142;2022-12-07T03:20:23;11.27;;;9.68;;
2544;SDS011;36212;48.838;9.142;2022-12-07T03:22:57;12.75;;;9.75;;
2544;SDS011;36212;48.838;9.142;2022-12-07T03:25:33;13.48;;;10.15;;
2544;SDS011;36212;48.838;9.142;2022-12-07T03:28:11;10.88;;;9.80;;
2544;SDS011;36212;48.838;9.142;2022-12-07T03:30:52;13.27;;;10.15;;
2544;SDS011;36212;48.838;9.142;2022-12-07T03:33:47;11.02;;;9.13;;
2544;SDS011;36212;48.838;9.142;2022-12-07T03:39:26;12.55;;;8.93;;
2544;SDS011;36212;48.838;9.142;2022-12-07T03:42:08;11.55;;;9.90;;
2544;SDS011;36212;48.838;9.142;2022-12-07T03:44:42;11.85;;;10.35;;
2544;SDS011;36212;48.838;9.142;2022-12-07T03:47:16;12.27;;;9.90;;
2544;SDS011;36212;48.838;9.142;2022-12-07T03:50:10;11.60;;;9.90;;
2544;SDS011;36212;48.838;9.142;2022-12-07T03:53:00;10.32;;;9.30;;
2544;SDS011;36212;48.838;9.142;2022-12-07T03:55:45;11.80;;;10.05;;
2544;SDS011;36212;48.838;9.142;2022-12-07T03:58:20;11.02;;;9.48;;
2544;SDS011;36212;48.838;9.142;2022-12-07T04:00:53;11.63;;;9.82;;
2544;SDS011;36212;48.838;9.142;2022-12-07T04:03:26;11.93;;;10.57;;
2544;SDS011;36212;48.838;9.142;2022-12-07T04:05:58;11.05;;;9.95;;
2544;SDS011;36212;48.838;9.142;2022-12-07T04:08:31;10.52;;;9.18;;
2544;SDS011;36212;48.838;9.142;2022-12-07T04:11:03;13.25;;;10.93;;
2544;SDS011;36212;48.838;9.142;2022-12-07T04:13:35;13.95;;;11.45;;
2544;SDS011;36212;48.838;9.142;2022-12-07T04:16:48;13.55;;;11.30;;
2544;SDS011;36212;48.838;9.142;2022-12-07T04:19:28;12.45;;;11.15;;
2544;SDS011;36212;48.838;9.142;2022-12-07T04:22:04;13.77;;;11.10;;
2544;SDS011;36212;48.838;9.142;2022-12-07T04:24:37;12.38;;;10.07;;
2544;SDS011;36212;48.838;9.142;2022-12-07T04:27:09;12.38;;;10.85;;
2544;SDS011;36212;48.838;9.142;2022-12-07T04:29:41;13.02;;;10.23;;
2544;SDS011;36212;48.838;9.142;2022-12-07T04:32:14;12.02;;;10.65;;
2544;SDS011;36212;48.838;9.142;2022-12-07T04:34:45;11.82;;;10.63;;
2544;SDS011;36212;48.838;9.142;2022-12-07T04:37:24;11.15;;;10.00;;
2544;SDS011;36212;48.838;9.142;2022-12-07T04:39:56;14.02;;;11.05;;
2544;SDS011;36212;48.838;9.142;2022-12-07T04:42:28;10.55;;;8.85;;
2544;SDS011;36212;48.838;9.142;2022-12-07T04:45:00;9.13;;;8.13;;
2544;SDS011;36212;48.838;9.142;2022-12-07T04:47:34;9.30;;;8.40;;
2544;SDS011;36212;48.838;9.142;2022-12-07T04:50:07;8.52;;;7.60;;
2544;SDS011;36212;48.838;9.142;2022-12-07T04:52:40;10.30;;;8.30;;
2544;SDS011;36212;48.838;9.142;2022-12-07T04:55:12;9.07;;;7.97;;
2544;SDS011;36212;48.838;9.142;2022-12-07T04:57:44;9.38;;;7.32;;
2544;SDS011;36212;48.838;9.142;2022-12-07T05:00:16;7.65;;;6.95;;
2544;SDS011;36212;48.838;9.142;2022-12-07T05:02:49;9.57;;;8.45;;
2544;SDS011;36212;48.838;9.142;2022-12-07T05:05:21;10.75;;;8.45;;
2544;SDS011;36212;48.838;9.142;2022-12-07T05:07:54;10.73;;;8.38;;
2544;SDS011;36212;48.838;9.142;2022-12-07T05:10:26;8.43;;;7.63;;
2544;SDS011;36212;48.838;9.142;2022-12-07T05:12:58;10.60;;;9.60;;
2544;SDS011;36212;48.838;9.142;2022-12-07T05:15:30;10.35;;;8.98;;
2544;SDS011;36212;48.838;9.142;2022-12-07T05:18:02;12.68;;;11.13;;
2544;SDS011;36212;48.838;9.142;2022-12-07T05:20:34;11.60;;;10.30;;
2544;SDS011;36212;48.838;9.142;2022-12-07T05:23:13;11.00;;;9.70;;
2544;SDS011;36212;48.838;9.142;2022-12-07T05:25:45;11.18;;;9.85;;
2544;SDS011;36212;48.838;9.142;2022-12-07T05:28:17;11.43;;;8.55;;
2544;SDS011;36212;48.838;9.142;2022-12-07T05:30:49;13.25;;;10.60;;
2544;SDS011;36212;48.838;9.142;2022-12-07T05:33:28;10.38;;;9.38;;
2544;SDS011;36212;48.838;9.142;2022-12-07T05:36:00;12.35;;;9.82;;
2544;SDS011;36212;48.838;9.142;2022-12-07T05:38:37;12.52;;;9.85;;
2544;SDS011;36212;48.838;9.142;2022-12-07T05:41:11;11.35;;;10.15;;
2544;SDS011;36212;48.838;9.142;2022-12-07T05:44:25;10.75;;;9.65;;
2544;SDS011;36212;48.838;9.142;2022-12-07T05:46:57;13.02;;;9.38;;
2544;SDS011;36212;48.838;9.142;2022-12-07T05:49:29;10.65;;;8.98;;
2544;SDS011;36212;48.838;9.142;2022-12-07T05:52:01;11.32;;;9.50;;
2544;SDS011;36212;48.838;9.142;2022-12-07T05:54:34;11.38;;;9.93;;
2544;SDS011;36212;48.838;9.142;2022-12-07T05:57:06;12.98;;;9.77;;
2544;SDS011;36212;48.838;9.142;2022-12-07T05:59:38;12.90;;;10.85;;
2544;SDS011;36212;48.838;9.142;2022-12-07T06:02:12;11.60;;;9.63;;
2544;SDS011;36212;48.838;9.142;2022-12-07T06:04:47;10.05;;;9.00;;
2544;SDS011;36212;48.838;9.142;2022-12-07T06:07:20;9.95;;;8.90;;
2544;SDS011;36212;48.838;9.142;2022-12-07T06:09:52;10.80;;;8.68;;
2544;SDS011;36212;48.838;9.142;2022-12-07T06:12:24;10.90;;;9.52;;
2544;SDS011;36212;48.838;9.142;2022-12-07T06:15:05;10.90;;;7.90;;
2544;SDS011;36212;48.838;9.142;2022-12-07T06:17:39;9.38;;;7.57;;
2544;SDS011;36212;48.838;9.142;2022-12-07T06:20:12;8.57;;;7.65;;
2544;SDS011;36212;48.838;9.142;2022-12-07T06:22:44;10.63;;;9.63;;
2544;SDS011;36212;48.838;9.142;2022-12-07T06:25:17;8.50;;;7.50;;
2544;SDS011;36212;48.838;9.142;2022-12-07T06:27:52;8.93;;;7.68;;
2544;SDS011;36212;48.838;9.142;2022-12-07T06:30:26;8.38;;;7.55;;
2544;SDS011;36212;48.838;9.142;2022-12-07T06:32:58;7.40;;;6.70;;
2544;SDS011;36212;48.838;9.142;2022-12-07T06:35:32;8.07;;;7.28;;
2544;SDS011;36212;48.838;9.142;2022-12-07T06:38:04;10.77;;;8.50;;
2544;SDS011;36212;48.838;9.142;2022-12-07T06:40:36;9.30;;;8.30;;
2544;SDS011;36212;48.838;9.142;2022-12-07T06:43:08;11.65;;;8.55;;
2544;SDS011;36212;48.838;9.142;2022-12-07T06:45:41;10.13;;;8.73;;
2544;SDS011;36212;48.838;9.142;2022-12-07T06:48:13;10.07;;;8.40;;
2544;SDS011;36212;48.838;9.142;2022-12-07T06:50:46;9.77;;;8.00;;
2544;SDS011;36212;48.838;9.142;2022-12-07T06:53:25;9.07;;;8.18;;
2544;SDS011;36212;48.838;9.142;2022-12-07T06:55:57;10.00;;;8.90;;
2544;SDS011;36212;48.838;9.142;2022-12-07T06:58:29;10.43;;;8.40;;
2544;SDS011;36212;48.838;9.142;2022-12-07T07:01:02;9.57;;;7.75;;
2544;SDS011;36212;48.838;9.142;2022-12-07T07:03:40;8.50;;;7.15;;
2544;SDS011;36212;48.838;9.142;2022-12-07T07:06:13;9.98;;;8.93;;
2544;SDS011;36212;48.838;9.142;2022-12-07T07:08:46;9.30;;;8.40;;
2544;SDS011;36212;48.838;9.142;2022-12-07T07:11:19;8.98;;;8.00;;
2544;SDS011;36212;48.838;9.142;2022-12-07T07:13:51;8.43;;;7.53;;
2544;SDS011;36212;48.838;9.142;2022-12-07T07:16:27;9.88;;;7.80;;
2544;SDS011;36212;48.838;9.142;2022-12-07T07:19:01;9.15;;;8.20;;
2544;SDS011;36212;48.838;9.142;2022-12-07T07:21:33;10.07;;;8.45;;
2544;SDS011;36212;48.838;9.142;2022-12-07T07:24:06;8.65;;;7.80;;
2544;SDS011;36212;48.838;9.142;2022-12-07T07:26:39;7.55;;;6.75;;
2544;SDS011;36212;48.838;9.142;2022-12-07T07:29:12;8.63;;;7.82;;
2544;SDS011;36212;48.838;9.142;2022-12-07T07:31:44;8.40;;;7.60;;
2544;SDS011;36212;48.838;9.142;2022-12-07T07:34:16;9.68;;;7.18;;
2544;SDS011;36212;48.838;9.142;2022-12-07T07:36:48;8.35;;;7.55;;
2544;SDS011;36212;48.838;9.142;2022-12-07T07:39:20;8.73;;;7.40;;
2544;SDS011;36212;48.838;9.142;2022-12-07T07:41:52;7.50;;;6.80;;
2544;SDS011;36212;48.838;9.142;2022-12-07T07:44:25;8.00;;;6.68;;
2544;SDS011;36212;48.838;9.142;2022-12-07T07:47:04;7.22;;;6.50;;
2544;SDS011;36212;48.838;9.142;2022-12-07T07:49:36;11.70;;;8.95;;
2544;SDS011;36212;48.838;9.142;2022-12-07T07:52:14;6.63;;;5.93;;
2544;SDS011;36212;48.838;9.142;2022-12-07T07:54:46;7.35;;;6.65;;
2544;SDS011;36212;48.838;9.142;2022-12-07T07:57:19;9.32;;;6.25;;
2544;SDS011;36212;48.838;9.142;2022-12-07T07:59:51;8.73;;;7.82;;
2544;SDS011;36212;48.838;9.142;2022-12-07T08:02:23;7.93;;;6.35;;
2544;SDS011;36212;48.838;9.142;2022-12-07T08:04:55;7.25;;;6.55;;
2544;SDS011;36212;48.838;9.142;2022-12-07T08:07:27;7.40;;;6.20;;
2544;SDS011;36212;48.838;9.142;2022-12-07T08:10:00;7.22;;;6.50;;
2544;SDS011;36212;48.838;9.142;2022-12-07T08:12:40;9.27;;;6.95;;
2544;SDS011;36212;48.838;9.142;2022-12-07T08:15:48;7.75;;;7.05;;
2544;SDS011;36212;48.838;9.142;2022-12-07T08:18:20;6.40;;;5.80;;
2544;SDS011;36212;48.838;9.142;2022-12-07T08:20:52;8.73;;;7.15;;
2544;SDS011;36212;48.838;9.142;2022-12-07T08:23:33;7.95;;;7.13;;
2544;SDS011;36212;48.838;9.142;2022-12-07T08:26:12;8.68;;;7.53;;
2544;SDS011;36212;48.838;9.142;2022-12-07T08:28:46;6.57;;;5.97;;
2544;SDS011;36212;48.838;9.142;2022-12-07T08:31:19;7.55;;;6.85;;
2544;SDS011;36212;48.838;9.142;2022-12-07T08:33:51;7.10;;;6.40;;
2544;SDS011;36212;48.838;9.142;2022-12-07T08:36:23;7.53;;;6.82;;
2544;SDS011;36212;48.838;9.142;2022-12-07T08:38:57;9.05;;;7.40;;
2544;SDS011;36212;48.838;9.142;2022-12-07T08:41:49;9.05;;;7.32;;
2544;SDS011;36212;48.838;9.142;2022-12-07T08:44:21;7.18;;;6.30;;
2544;SDS011;36212;48.838;9.142;2022-12-07T08:46:54;7.60;;;6.80;;
2544;SDS011;36212;48.838;9.142;2022-12-07T08:49:39;7.03;;;6.32;;
2544;SDS011;36212;48.838;9.142;2022-12-07T08:52:17;9.73;;;7.28;;
2544;SDS011;36212;48.838;9.142;2022-12-07T08:54:49;8.20;;;7.38;;
2544;SDS011;36212;48.838;9.142;2022-12-07T08:57:22;8.30;;;7.00;;
2544;SDS011;36212;48.838;9.142;2022-12-07T08:59:54;7.45;;;6.28;;
2544;SDS011;36212;48.838;9.142;2022-12-07T09:02:27;8.02;;;6.88;;
2544;SDS011;36212;48.838;9.142;2022-12-07T09:05:01;7.00;;;6.30;;
2544;SDS011;36212;48.838;9.142;2022-12-07T09:07:34;6.85;;;6.20;;
2544;SDS011;36212;48.838;9.142;2022-12-07T09:10:07;7.00;;;5.80;;
2544;SDS011;36212;48.838;9.142;2022-12-07T09:12:40;6.43;;;5.82;;
2544;SDS011;36212;48.838;9.142;2022-12-07T09:15:12;6.72;;;6.07;;
2544;SDS011;36212;48.838;9.142;2022-12-07T09:17:45;6.70;;;5.70;;
2544;SDS011;36212;48.838;9.142;2022-12-07T09:20:18;7.50;;;5.70;;
2544;SDS011;36212;48.838;9.142;2022-12-07T09:22:58;6.90;;;5.28;;
2544;SDS011;36212;48.838;9.142;2022-12-07T09:25:30;5.93;;;5.43;;
2544;SDS011;36212;48.838;9.142;2022-12-07T09:28:04;5.72;;;5.22;;
2544;SDS011;36212;48.838;9.142;2022-12-07T09:30:37;6.68;;;5.40;;
2544;SDS011;36212;48.838;9.142;2022-12-07T09:33:30;5.40;;;4.93;;
2544;SDS011;36212;48.838;9.142;2022-12-07T09:36:02;5.25;;;4.80;;
2544;SDS011;36212;48.838;9.142;2022-12-07T09:38:36;5.25;;;4.75;;
2544;SDS011;36212;48.838;9.142;2022-12-07T09:41:09;5.25;;;4.85;;
2544;SDS011;36212;48.838;9.142;2022-12-07T09:43:41;5.10;;;4.60;;
2544;SDS011;36212;48.838;9.142;2022-12-07T09:46:16;5.22;;;4.82;;
2544;SDS011;36212;48.838;9.142;2022-12-07T09:48:50;4.85;;;4.10;;
2544;SDS011;36212;48.838;9.142;2022-12-07T09:51:23;5.03;;;4.35;;
2544;SDS011;36212;48.838;9.142;2022-12-07T09:53:56;5.30;;;4.90;;
2544;SDS011;36212;48.838;9.142;2022-12-07T09:56:31;5.25;;;4.85;;
2544;SDS011;36212;48.838;9.142;2022-12-07T09:59:09;4.93;;;4.50;;
2544;SDS011;36212;48.838;9.142;2022-12-07T10:01:49;5.10;;;4.60;;
2544;SDS011;36212;48.838;9.142;2022-12-07T10:04:23;4.95;;;4.55;;
2544;SDS011;36212;48.838;9.142;2022-12-07T10:06:57;5.55;;;5.03;;
2544;SDS011;36212;48.838;9.142;2022-12-07T10:09:29;5.05;;;4.55;;
2544;SDS011;36212;48.838;9.142;2022-12-07T10:12:10;4.40;;;4.10;;
2544;SDS011;36212;48.838;9.142;2022-12-07T10:14:57;5.40;;;4.90;;
2544;SDS011;36212;48.838;9.142;2022-12-07T10:17:40;5.20;;;4.78;;
2544;SDS011;36212;48.838;9.142;2022-12-07T10:20:21;6.50;;;5.80;;
2544;SDS011;36212;48.838;9.142;2022-12-07T10:25:35;4.50;;;4.10;;
2544;SDS011;36212;48.838;9.142;2022-12-07T10:28:12;4.10;;;3.80;;
2544;SDS011;36212;48.838;9.142;2022-12-07T10:33:48;3.65;;;3.35;;
2544;SDS011;36212;48.838;9.142;2022-12-07T10:36:36;4.15;;;3.85;;
2544;SDS011;36212;48.838;9.142;2022-12-07T10:39:14;4.05;;;3.75;;
2544;SDS011;36212;48.838;9.142;2022-12-07T10:42:02;5.68;;;5.05;;
2544;SDS011;36212;48.838;9.142;2022-12-07T10:44:46;4.90;;;4.47;;
2544;SDS011;36212;48.838;9.142;2022-12-07T10:50:56;4.88;;;4.47;;
2544;SDS011;36212;48.838;9.142;2022-12-07T10:54:08;3.80;;;3.50;;
2544;SDS011;36212;48.838;9.142;2022-12-07T11:22:48;4.13;;;3.50;;
2544;SDS011;36212;48.838;9.142;2022-12-07T11:26:00;4.15;;;3.80;;
2544;SDS011;36212;48.838;9.142;2022-12-07T11:38:48;6.00;;;5.50;;
2544;SDS011;36212;48.838;9.142;2022-12-07T11:41:31;6.85;;;5.85;;
2544;SDS011;36212;48.838;9.142;2022-12-07T11:44:20;6.70;;;6.15;;
2544;SDS011;36212;48.838;9.142;2022-12-07T11:50:44;7.80;;;6.00;;
2544;SDS011;36212;48.838;9.142;2022-12-07T11:53:29;6.30;;;5.70;;
2544;SDS011;36212;48.838;9.142;2022-12-07T11:56:20;6.38;;;5.88;;
2544;SDS011;36212;48.838;9.142;2022-12-07T12:02:14;6.18;;;5.57;;
2544;SDS011;36212;48.838;9.142;2022-12-07T12:05:12;6.50;;;5.90;;
2544;SDS011;36212;48.838;9.142;2022-12-07T12:07:59;7.18;;;6.45;;
2544;SDS011;36212;48.838;9.142;2022-12-07T12:21:10;7.30;;;5.85;;
2544;SDS011;36212;48.838;9.142;2022-12-07T12:26:52;6.55;;;5.72;;
2544;SDS011;36212;48.838;9.142;2022-12-07T12:29:52;6.60;;;5.95;;
2544;SDS011;36212;48.838;9.142;2022-12-07T12:32:34;6.57;;;6.07;;
2544;SDS011;36212;48.838;9.142;2022-12-07T12:35:31;7.53;;;6.82;;
2544;SDS011;36212;48.838;9.142;2022-12-07T12:38:31;6.57;;;5.97;;
2544;SDS011;36212;48.838;9.142;2022-12-07T12:50:41;6.80;;;6.10;;
2544;SDS011;36212;48.838;9.142;2022-12-07T12:53:23;6.32;;;5.82;;
2544;SDS011;36212;48.838;9.142;2022-12-07T13:02:15;6.95;;;6.20;;
2544;SDS011;36212;48.838;9.142;2022-12-07T13:07:57;9.45;;;8.15;;
2544;SDS011;36212;48.838;9.142;2022-12-07T13:10:54;7.35;;;6.65;;
2544;SDS011;36212;48.838;9.142;2022-12-07T13:20:45;7.90;;;7.13;;
2544;SDS011;36212;48.838;9.142;2022-12-07T13:23:37;7.57;;;6.88;;
2544;SDS011;36212;48.838;9.142;2022-12-07T13:34:37;7.50;;;6.78;;
2544;SDS011;36212;48.838;9.142;2022-12-07T13:37:18;7.70;;;7.00;;
2544;SDS011;36212;48.838;9.142;2022-12-07T13:40:18;7.82;;;7.03;;
2544;SDS011;36212;48.838;9.142;2022-12-07T13:43:03;7.85;;;7.05;;
2544;SDS011;36212;48.838;9.142;2022-12-07T13:45:45;7.75;;;7.05;;
2544;SDS011;36212;48.838;9.142;2022-12-07T13:48:33;10.48;;;8.95;;
2544;SDS011;36212;48.838;9.142;2022-12-07T13:51:21;9.60;;;8.60;;
2544;SDS011;36212;48.838;9.142;2022-12-07T13:54:09;9.00;;;7.68;;
2544;SDS011;36212;48.838;9.142;2022-12-07T13:56:47;9.35;;;8.52;;
2544;SDS011;36212;48.838;9.142;2022-12-07T13:59:24;9.27;;;8.38;;
2544;SDS011;36212;48.838;9.142;2022-12-07T14:01:58;8.68;;;7.68;;
2544;SDS011;36212;48.838;9.142;2022-12-07T14:04:35;10.30;;;9.18;;
2544;SDS011;36212;48.838;9.142;2022-12-07T14:07:26;10.40;;;8.90;;
2544;SDS011;36212;48.838;9.142;2022-12-07T14:10:02;7.90;;;7.20;;
2544;SDS011;36212;48.838;9.142;2022-12-07T14:12:53;10.27;;;8.77;;
2544;SDS011;36212;48.838;9.142;2022-12-07T14:15:28;8.98;;;7.10;;
2544;SDS011;36212;48.838;9.142;2022-12-07T14:18:24;7.10;;;6.25;;
2544;SDS011;36212;48.838;9.142;2022-12-07T14:21:15;7.57;;;6.82;;
2544;SDS011;36212;48.838;9.142;2022-12-07T14:24:18;8.52;;;7.50;;
2544;SDS011;36212;48.838;9.142;2022-12-07T14:26:52;7.50;;;6.90;;
2544;SDS011;36212;48.838;9.142;2022-12-07T14:32:22;8.35;;;6.72;;
2544;SDS011;36212;48.838;9.142;2022-12-07T14:35:03;8.60;;;7.80;;
2544;SDS011;36212;48.838;9.142;2022-12-07T14:37:44;7.95;;;7.15;;
2544;SDS011;36212;48.838;9.142;2022-12-07T14:40:20;7.85;;;6.85;;
2544;SDS011;36212;48.838;9.142;2022-12-07T14:45:35;7.30;;;6.65;;
2544;SDS011;36212;48.838;9.142;2022-12-07T14:48:10;7.63;;;7.03;;
2544;SDS011;36212;48.838;9.142;2022-12-07T14:51:05;8.48;;;7.57;;
2544;SDS011;36212;48.838;9.142;2022-12-07T14:54:04;7.40;;;6.70;;
2544;SDS011;36212;48.838;9.142;2022-12-07T14:56:46;9.95;;;8.25;;
2544;SDS011;36212;48.838;9.142;2022-12-07T14:59:23;8.15;;;7.18;;
2544;SDS011;36212;48.838;9.142;2022-12-07T15:01:57;10.20;;;8.40;;
2544;SDS011;36212;48.838;9.142;2022-12-07T15:04:29;10.43;;;7.97;;
2544;SDS011;36212;48.838;9.142;2022-12-07T15:07:03;8.82;;;6.90;;
2544;SDS011;36212;48.838;9.142;2022-12-07T15:09:48;8.50;;;7.20;;
2544;SDS011;36212;48.838;9.142;2022-12-07T15:12:21;8.60;;;7.70;;
2544;SDS011;36212;48.838;9.142;2022-12-07T15:14:56;8.82;;;7.93;;
2544;SDS011;36212;48.838;9.142;2022-12-07T15:17:28;9.63;;;8.65;;
2544;SDS011;36212;48.838;9.142;2022-12-07T15:20:04;10.85;;;8.05;;
2544;SDS011;36212;48.838;9.142;2022-12-07T15:22:41;9.95;;;8.10;;
2544;SDS011;36212;48.838;9.142;2022-12-07T15:25:14;8.93;;;8.02;;
2544;SDS011;36212;48.838;9.142;2022-12-07T15:27:49;8.88;;;8.00;;
2544;SDS011;36212;48.838;9.142;2022-12-07T15:30:21;12.07;;;9.95;;
2544;SDS011;36212;48.838;9.142;2022-12-07T15:32:54;9.98;;;8.90;;
2544;SDS011;36212;48.838;9.142;2022-12-07T15:35:28;12.07;;;9.13;;
2544;SDS011;36212;48.838;9.142;2022-12-07T15:38:01;9.68;;;8.50;;
2544;SDS011;36212;48.838;9.142;2022-12-07T15:40:38;9.55;;;8.32;;
2544;SDS011;36212;48.838;9.142;2022-12-07T15:43:11;10.90;;;8.65;;
2544;SDS011;36212;48.838;9.142;2022-12-07T15:46:22;10.32;;;9.32;;
2544;SDS011;36212;48.838;9.142;2022-12-07T15:49:05;10.02;;;8.48;;
2544;SDS011;36212;48.838;9.142;2022-12-07T15:51:46;10.70;;;8.38;;
2544;SDS011;36212;48.838;9.142;2022-12-07T15:54:23;9.60;;;8.30;;
2544;SDS011;36212;48.838;9.142;2022-12-07T15:56:59;9.55;;;8.50;;
2544;SDS011;36212;48.838;9.142;2022-12-07T15:59:32;10.55;;;9.15;;
2544;SDS011;36212;48.838;9.142;2022-12-07T16:02:08;9.93;;;8.93;;
2544;SDS011;36212;48.838;9.142;2022-12-07T16:04:43;11.70;;;9.25;;
2544;SDS011;36212;48.838;9.142;2022-12-07T16:07:17;12.15;;;10.38;;
2544;SDS011;36212;48.838;9.142;2022-12-07T16:09:51;13.40;;;10.10;;
2544;SDS011;36212;48.838;9.142;2022-12-07T16:12:24;14.23;;;12.20;;
2544;SDS011;36212;48.838;9.142;2022-12-07T16:14:58;13.32;;;10.15;;
2544;SDS011;36212;48.838;9.142;2022-12-07T16:17:31;12.98;;;10.23;;
2544;SDS011;36212;48.838;9.142;2022-12-07T16:20:05;11.52;;;10.38;;
2544;SDS011;36212;48.838;9.142;2022-12-07T16:22:47;12.40;;;10.60;;
2544;SDS011;36212;48.838;9.142;2022-12-07T16:25:23;21.88;;;14.80;;
2544;SDS011;36212;48.838;9.142;2022-12-07T16:27:56;18.33;;;14.10;;
2544;SDS011;36212;48.838;9.142;2022-12-07T16:30:30;16.92;;;11.82;;
2544;SDS011;36212;48.838;9.142;2022-12-07T16:33:03;14.88;;;11.80;;
2544;SDS011;36212;48.838;9.142;2022-12-07T16:35:39;15.88;;;12.57;;
2544;SDS011;36212;48.838;9.142;2022-12-07T16:38:16;14.40;;;11.23;;
2544;SDS011;36212;48.838;9.142;2022-12-07T16:40:50;11.63;;;9.65;;
2544;SDS011;36212;48.838;9.142;2022-12-07T16:43:23;11.45;;;9.60;;
2544;SDS011;36212;48.838;9.142;2022-12-07T16:45:56;13.52;;;9.32;;
2544;SDS011;36212;48.838;9.142;2022-12-07T16:48:30;14.07;;;10.10;;
2544;SDS011;36212;48.838;9.142;2022-12-07T16:51:07;12.05;;;9.77;;
2544;SDS011;36212;48.838;9.142;2022-12-07T16:53:42;12.35;;;9.88;;
2544;SDS011;36212;48.838;9.142;2022-12-07T16:56:16;13.55;;;10.27;;
2544;SDS011;36212;48.838;9.142;2022-12-07T16:58:49;17.48;;;11.35;;
2544;SDS011;36212;48.838;9.142;2022-12-07T17:01:22;20.48;;;12.25;;
2544;SDS011;36212;48.838;9.142;2022-12-07T17:03:57;12.88;;;10.65;;
2544;SDS011;36212;48.838;9.142;2022-12-07T17:06:30;24.52;;;14.63;;
2544;SDS011;36212;48.838;9.142;2022-12-07T17:09:04;17.92;;;12.60;;
2544;SDS011;36212;48.838;9.142;2022-12-07T17:11:43;18.00;;;13.98;;
2544;SDS011;36212;48.838;9.142;2022-12-07T17:14:17;12.07;;;10.43;;
2544;SDS011;36212;48.838;9.142;2022-12-07T17:17:28;11.18;;;8.40;;
2544;SDS011;36212;48.838;9.142;2022-12-07T17:20:01;11.20;;;10.00;;
2544;SDS011;36212;48.838;9.142;2022-12-07T17:22:35;13.48;;;10.32;;
2544;SDS011;36212;48.838;9.142;2022-12-07T17:25:08;11.48;;;9.30;;
2544;SDS011;36212;48.838;9.142;2022-12-07T17:27:41;10.23;;;9.27;;
2544;SDS011;36212;48.838;9.142;2022-12-07T17:30:16;9.88;;;8.73;;
2544;SDS011;36212;48.838;9.142;2022-12-07T17:32:50;15.13;;;13.23;;
2544;SDS011;36212;48.838;9.142;2022-12-07T17:35:23;14.77;;;12.00;;
2544;SDS011;36212;48.838;9.142;2022-12-07T17:37:56;14.93;;;10.13;;
2544;SDS011;36212;48.838;9.142;2022-12-07T17:40:33;12.90;;;11.60;;
2544;SDS011;36212;48.838;9.142;2022-12-07T17:43:07;14.18;;;12.27;;
2544;SDS011;36212;48.838;9.142;2022-12-07T17:45:40;12.70;;;10.95;;
2544;SDS011;36212;48.838;9.142;2022-12-07T17:48:15;12.25;;;10.00;;
2544;SDS011;36212;48.838;9.142;2022-12-07T17:50:47;10.68;;;9.55;;
2544;SDS011;36212;48.838;9.142;2022-12-07T17:53:59;11.55;;;9.73;;
2544;SDS011;36212;48.838;9.142;2022-12-07T17:56:31;13.40;;;11.70;;
2544;SDS011;36212;48.838;9.142;2022-12-07T17:59:06;12.27;;;11.10;;
2544;SDS011;36212;48.838;9.142;2022-12-07T18:01:40;14.50;;;12.32;;
2544;SDS011;36212;48.838;9.142;2022-12-07T18:04:15;12.60;;;10.48;;
2544;SDS011;36212;48.838;9.142;2022-12-07T18:06:49;12.98;;;11.32;;
2544;SDS011;36212;48.838;9.142;2022-12-07T18:09:23;10.52;;;9.43;;
2544;SDS011;36212;48.838;9.142;2022-12-07T18:11:56;12.07;;;9.02;;
2544;SDS011;36212;48.838;9.142;2022-12-07T18:14:29;14.05;;;10.68;;